Airfield :
LOGIN :

Register | Disclaimer

   EN    FR    IT 

 










Legend :    VFR   Marginal VFR   IFR   Intensive IFR   Very Intensive IFR
Visi :
Ceiling :
>= 8 km
>= 3000ft
5 to 8 km
1000 to 3000 ft
1500m to 5 km
500 to 1000 ft
800 to 1500m
200 to 500 ft
< 800m
< 200 ft
Symbols :   Thunderstorms  Fog  Heavy snow  Heavy precipitations  Wind > 20 kt
SIGMETs :     Misc.  Thunderstorms  Icing  Turbulence  Mountain Waves  Volcanic Ashes






- Airport Elevation : 46 ft
- IATA code : SNN


EINN - Shannon

CURRENT METAR :
  • 070200Z 34006KT 9999 BKN045 01/M00 Q1028 NOSIG

EXPIRED METARs :
  • 070130Z 34005KT 9999 BKN045 01/M00 Q1028 NOSIG
  • 070100Z 31004KT 9999 BKN045 01/M01 Q1028 NOSIG
  • 070030Z 33004KT 9999 BKN045 01/M00 Q1029 NOSIG
  • 070000Z 33004KT 9999 BKN045 01/M00 Q1029 NOSIG
  • 062330Z 30002KT 9999 BKN044 02/M00 Q1029 NOSIG

TAF TAF EINN
Valid from the 07 at 00:00 until the 08 at 00:00 UTC


062300Z 0700/0724 36006KT 9999 FEW012 BKN040
PROB40 0703/0710 0500 FG BKN001



MET'MAP, your aeronautical weather chart ! - Copyright ORBIFLY December 2007 - Disclaimer

ORBIFLY MET'MAP TEAM :

Programming & Development : Alexandra Zaïnal
Original concept : Baudouin d'Aumeries
Technical & hardware support : Manuel Goepfert
Assistance : Marc-Olivier Méhu




SOURCES & CREDITS :

   NOAA